createdAt,value
2023-03-06T00:01:44.942Z,93909.75
2023-03-06T00:04:11.536Z,93904.13
2023-03-06T00:06:37.924Z,93910.81
2023-03-06T00:09:04.261Z,93896.56
2023-03-06T00:11:30.597Z,93901.53
2023-03-06T00:13:56.928Z,93907.06
2023-03-06T00:16:23.393Z,93912.31
2023-03-06T00:18:49.771Z,93911.78
2023-03-06T00:21:16.109Z,93908.28
2023-03-06T00:23:42.444Z,93905.63
2023-03-06T00:26:08.782Z,93908.38
2023-03-06T00:28:35.120Z,93906.06
2023-03-06T00:31:01.469Z,93906.22
2023-03-06T00:33:27.794Z,93892.84
2023-03-06T00:35:54.162Z,93897.75
2023-03-06T00:38:20.486Z,93898.78
2023-03-06T00:40:46.798Z,93896.19
2023-03-06T00:43:13.127Z,93900.16
2023-03-06T00:45:39.532Z,93897.78
2023-03-06T00:48:05.922Z,93902.91
2023-03-06T00:50:32.254Z,93896.88
2023-03-06T00:52:58.605Z,93887.97
2023-03-06T00:55:24.961Z,93892.03
2023-03-06T00:57:51.346Z,93894.94
2023-03-06T01:00:17.734Z,93886.47
2023-03-06T01:02:44.117Z,93889.44
2023-03-06T01:05:10.499Z,93891.75
2023-03-06T01:07:36.890Z,93890.34
2023-03-06T01:10:03.226Z,93890.03
2023-03-06T01:12:29.565Z,93880.94
2023-03-06T01:14:55.889Z,93877.44
2023-03-06T01:17:22.213Z,93879.81
2023-03-06T01:19:48.691Z,93878.91
2023-03-06T01:22:15.017Z,93873.06
2023-03-06T01:24:41.339Z,93861.78
2023-03-06T01:27:07.652Z,93856.09
2023-03-06T01:29:33.971Z,93858.84
2023-03-06T01:32:00.378Z,93857.13
2023-03-06T01:34:26.749Z,93850.56
2023-03-06T01:36:53.085Z,93853.66
2023-03-06T01:39:19.416Z,93850.91
2023-03-06T01:41:45.727Z,93846.13
2023-03-06T01:44:12.082Z,93843.38
2023-03-06T01:46:38.415Z,93842.47
2023-03-06T01:49:04.732Z,93835.22
2023-03-06T01:51:31.067Z,93837.63
2023-03-06T01:53:57.402Z,93830.72
2023-03-06T01:56:23.717Z,93825.38
2023-03-06T01:58:50.094Z,93824.41
2023-03-06T02:01:16.438Z,93815.19
2023-03-06T02:03:42.766Z,93826.53
2023-03-06T02:06:09.094Z,93824.56
2023-03-06T02:08:35.440Z,93821.56
2023-03-06T02:11:01.758Z,93823.19
2023-03-06T02:13:28.071Z,93820.09
2023-03-06T02:15:54.409Z,93822.44
2023-03-06T02:18:20.730Z,93822.44
2023-03-06T02:20:47.043Z,93822.88
2023-03-06T02:23:13.389Z,93820.13
2023-03-06T02:25:39.703Z,93817.69
2023-03-06T02:28:06.030Z,93808.44
2023-03-06T02:30:32.363Z,93807.06
2023-03-06T02:32:58.711Z,93798.38
2023-03-06T02:35:25.078Z,93803.56
2023-03-06T02:37:51.449Z,93793.22
2023-03-06T02:40:17.785Z,93799.44
2023-03-06T02:42:44.181Z,93800.41
2023-03-06T02:45:10.506Z,93803.75
2023-03-06T02:47:36.826Z,93798.16
2023-03-06T02:50:03.159Z,93801.03
2023-03-06T02:52:29.511Z,93798.31
2023-03-06T02:54:55.842Z,93795.16
2023-03-06T02:57:22.170Z,93793.31
2023-03-06T02:59:48.518Z,93789.63
2023-03-06T03:02:14.854Z,93789.88
2023-03-06T03:04:41.217Z,93786.13
2023-03-06T03:07:07.560Z,93788.72
2023-03-06T03:09:33.910Z,93777.63
2023-03-06T03:12:00.229Z,93781.25
2023-03-06T03:14:26.542Z,93772.66
2023-03-06T03:16:52.870Z,93776.78
2023-03-06T03:19:19.202Z,93772.56
2023-03-06T03:21:45.532Z,93773.97
2023-03-06T03:24:11.850Z,93778.56
2023-03-06T03:26:38.197Z,93776.56
2023-03-06T03:29:04.528Z,93775.84
2023-03-06T03:31:30.849Z,93776.28
2023-03-06T03:33:57.193Z,93772.19
2023-03-06T03:36:23.514Z,93769.06
2023-03-06T03:38:49.854Z,93769.53
2023-03-06T03:41:16.202Z,93765.00
2023-03-06T03:43:42.529Z,93766.47
2023-03-06T03:46:08.933Z,93768.50
2023-03-06T03:48:35.275Z,93765.16
2023-03-06T03:51:01.606Z,93766.66
2023-03-06T03:53:27.948Z,93772.94
2023-03-06T03:55:54.272Z,93766.22
2023-03-06T03:58:20.594Z,93765.25
2023-03-06T04:00:46.912Z,93763.25
2023-03-06T04:03:13.301Z,93758.94
2023-03-06T04:05:39.633Z,93764.50
2023-03-06T04:08:05.963Z,93756.19
2023-03-06T04:10:32.285Z,93755.78
2023-03-06T04:12:58.623Z,93765.09
2023-03-06T04:15:24.943Z,93758.13
2023-03-06T04:17:51.317Z,93763.53
2023-03-06T04:20:17.637Z,93756.03
2023-03-06T04:22:43.963Z,93757.00
2023-03-06T04:25:10.303Z,93765.56
2023-03-06T04:27:36.621Z,93763.78
2023-03-06T04:30:02.945Z,93758.34
2023-03-06T04:32:29.325Z,93756.59
2023-03-06T04:34:55.697Z,93752.94
2023-03-06T04:37:22.044Z,93752.69
2023-03-06T04:39:48.372Z,93748.72
2023-03-06T04:42:14.697Z,93747.75
2023-03-06T04:44:41.026Z,93740.41
2023-03-06T04:47:07.371Z,93738.78
2023-03-06T04:49:33.864Z,93732.63
2023-03-06T04:52:00.238Z,93734.13
2023-03-06T04:54:26.600Z,93739.16
2023-03-06T04:56:52.930Z,93735.75
2023-03-06T04:59:19.244Z,93733.16
2023-03-06T05:01:45.569Z,93741.09
2023-03-06T05:04:11.929Z,93742.63
2023-03-06T05:06:38.286Z,93740.94
2023-03-06T05:09:04.605Z,93749.53
2023-03-06T05:11:30.935Z,93749.09
2023-03-06T05:13:57.264Z,93745.91
2023-03-06T05:16:23.673Z,93746.13
2023-03-06T05:18:50.763Z,93744.75
2023-03-06T05:21:17.154Z,93748.81
2023-03-06T05:23:43.598Z,93741.19
2023-03-06T05:26:09.926Z,93744.28
2023-03-06T05:28:36.229Z,93737.84
2023-03-06T05:31:03.532Z,93740.66
2023-03-06T05:33:29.914Z,93735.09
2023-03-06T05:35:56.247Z,93741.88
2023-03-06T05:38:22.589Z,93736.88
2023-03-06T05:40:48.918Z,93737.28
2023-03-06T05:43:15.253Z,93732.31
2023-03-06T05:45:41.624Z,93737.28
2023-03-06T05:48:07.971Z,93742.38
2023-03-06T05:50:34.295Z,93741.28
2023-03-06T05:53:00.629Z,93745.34
2023-03-06T05:55:26.981Z,93741.50
2023-03-06T05:57:53.318Z,93742.50
2023-03-06T06:00:19.654Z,93740.53
2023-03-06T06:02:46.126Z,93737.94
2023-03-06T06:05:13.192Z,93741.69
2023-03-06T06:07:39.619Z,93740.22
2023-03-06T06:10:05.973Z,93736.66
2023-03-06T06:12:32.309Z,93748.84
2023-03-06T06:14:58.649Z,93749.38
2023-03-06T06:17:24.974Z,93748.41
2023-03-06T06:19:51.311Z,93749.84
2023-03-06T06:22:17.633Z,93747.41
2023-03-06T06:24:43.953Z,93742.72
2023-03-06T06:27:10.280Z,93745.97
2023-03-06T06:29:36.610Z,93747.75
2023-03-06T06:32:02.981Z,93751.00
2023-03-06T06:34:29.371Z,93743.50
2023-03-06T06:36:55.713Z,93754.56
2023-03-06T06:39:22.028Z,93748.03
2023-03-06T06:42:02.354Z,93752.44
2023-03-06T06:44:34.673Z,93758.31
2023-03-06T06:49:47.326Z,93759.75
2023-03-06T06:52:13.688Z,93763.38
2023-03-06T06:54:40.004Z,93771.03
2023-03-06T06:57:06.328Z,93768.88
2023-03-06T06:59:32.664Z,93771.00
2023-03-06T07:01:58.992Z,93768.84
2023-03-06T07:04:25.320Z,93772.56
2023-03-06T07:06:51.653Z,93780.03
2023-03-06T07:09:17.969Z,93780.53
2023-03-06T07:11:44.279Z,93776.75
2023-03-06T07:14:10.603Z,93776.94
2023-03-06T07:16:36.928Z,93786.53
2023-03-06T07:19:03.272Z,93780.03
2023-03-06T07:21:29.618Z,93768.97
2023-03-06T07:23:55.936Z,93767.19
2023-03-06T07:26:22.275Z,93766.59
2023-03-06T07:28:52.591Z,93760.06
2023-03-06T07:31:19.370Z,93758.13
2023-03-06T07:33:45.725Z,93758.94
2023-03-06T07:36:13.599Z,93766.59
2023-03-06T07:38:40.302Z,93768.38
2023-03-06T07:41:06.619Z,93768.56
2023-03-06T07:43:32.944Z,93781.06
2023-03-06T07:45:59.287Z,93777.03
2023-03-06T07:48:25.634Z,93775.06
2023-03-06T07:50:51.947Z,93776.53
2023-03-06T07:53:18.298Z,93776.84
2023-03-06T07:55:44.684Z,93776.88
2023-03-06T07:58:11.018Z,93781.59
2023-03-06T08:00:37.353Z,93781.78
2023-03-06T08:03:03.814Z,93784.84
2023-03-06T08:05:30.205Z,93783.53
2023-03-06T08:07:56.542Z,93784.03
2023-03-06T08:10:22.854Z,93778.31
2023-03-06T08:12:49.193Z,93778.31
2023-03-06T08:15:15.518Z,93778.16
2023-03-06T08:17:41.844Z,93780.91
2023-03-06T08:20:08.196Z,93791.81
2023-03-06T08:22:34.536Z,93804.03
2023-03-06T08:25:00.884Z,93797.69
2023-03-06T08:27:27.228Z,93796.06
2023-03-06T08:29:53.556Z,93792.78
2023-03-06T08:32:19.935Z,93794.06
2023-03-06T08:34:46.280Z,93796.84
2023-03-06T08:37:12.599Z,93792.38
2023-03-06T08:39:38.940Z,93791.59
2023-03-06T08:42:05.262Z,93788.00
2023-03-06T08:44:31.594Z,93786.38
2023-03-06T08:46:57.934Z,93787.16
2023-03-06T08:49:24.253Z,93779.16
2023-03-06T08:51:50.574Z,93785.00
2023-03-06T08:54:16.885Z,93784.66
2023-03-06T08:56:43.217Z,93783.66
2023-03-06T08:59:09.541Z,93786.91
2023-03-06T09:01:35.966Z,93781.72
2023-03-06T09:04:02.341Z,93786.94
2023-03-06T09:06:28.686Z,93794.56
2023-03-06T09:08:55.032Z,93790.47
2023-03-06T09:11:21.370Z,93788.69
2023-03-06T09:13:47.707Z,93784.97
2023-03-06T09:16:14.083Z,93791.00
2023-03-06T09:18:40.442Z,93795.69
2023-03-06T09:21:06.779Z,93790.34
2023-03-06T09:23:33.097Z,93799.16
2023-03-06T09:25:59.449Z,93789.81
2023-03-06T09:28:25.807Z,93794.53
2023-03-06T09:30:52.205Z,93797.94
2023-03-06T09:33:18.553Z,93793.19
2023-03-06T09:35:44.879Z,93795.25
2023-03-06T09:38:11.209Z,93793.56
2023-03-06T09:40:37.554Z,93800.06
2023-03-06T09:43:03.892Z,93792.25
2023-03-06T09:45:30.225Z,93790.50
2023-03-06T09:47:56.555Z,93792.94
2023-03-06T09:50:22.937Z,93793.06
2023-03-06T09:52:49.306Z,93792.56
2023-03-06T09:55:15.657Z,93788.13
2023-03-06T09:57:42.003Z,93777.84
2023-03-06T10:00:08.331Z,93777.88
2023-03-06T10:02:34.732Z,93784.59
2023-03-06T10:05:01.243Z,93786.56
2023-03-06T10:07:27.620Z,93778.88
2023-03-06T10:09:53.942Z,93781.25
2023-03-06T10:12:20.271Z,93772.63
2023-03-06T10:14:48.904Z,93765.16
2023-03-06T10:17:15.593Z,93765.59
2023-03-06T10:19:41.921Z,93760.13
2023-03-06T10:22:08.274Z,93765.44
2023-03-06T10:24:34.608Z,93763.94
2023-03-06T10:27:01.152Z,93758.91
2023-03-06T10:29:27.506Z,93761.34
2023-03-06T10:31:53.845Z,93753.88
2023-03-06T10:34:20.209Z,93760.47
2023-03-06T10:36:46.552Z,93761.28
2023-03-06T10:39:12.870Z,93755.69
2023-03-06T10:41:39.207Z,93753.59
2023-03-06T10:44:05.525Z,93751.81
2023-03-06T10:46:31.935Z,93757.84
2023-03-06T10:48:58.302Z,93756.13
2023-03-06T10:51:24.620Z,93752.19
2023-03-06T10:53:50.944Z,93751.56
2023-03-06T10:56:17.284Z,93750.19
2023-03-06T10:58:43.604Z,93753.13
2023-03-06T11:01:09.918Z,93746.47
2023-03-06T11:03:36.375Z,93750.59
2023-03-06T11:06:02.763Z,93741.56
2023-03-06T11:08:29.110Z,93747.69
2023-03-06T11:10:55.426Z,93746.28
2023-03-06T11:13:21.775Z,93750.03
2023-03-06T11:15:48.133Z,93738.50
2023-03-06T11:18:14.501Z,93748.06
2023-03-06T11:20:50.974Z,93736.56
2023-03-06T11:23:18.077Z,93742.72
2023-03-06T11:25:44.406Z,93735.19
2023-03-06T11:28:10.726Z,93740.63
2023-03-06T11:30:37.047Z,93731.69
2023-03-06T11:33:03.384Z,93727.00
2023-03-06T11:35:29.750Z,93722.75
2023-03-06T11:37:56.099Z,93726.00
2023-03-06T11:40:22.423Z,93725.16
2023-03-06T11:42:48.752Z,93727.84
2023-03-06T11:45:15.073Z,93712.75
2023-03-06T11:47:41.437Z,93720.50
2023-03-06T11:50:07.767Z,93712.25
2023-03-06T11:52:34.097Z,93697.53
2023-03-06T11:55:00.422Z,93707.75
2023-03-06T11:57:26.861Z,93706.41
2023-03-06T11:59:53.200Z,93697.81
2023-03-06T12:02:19.546Z,93696.53
2023-03-06T12:04:45.908Z,93684.41
2023-03-06T12:07:12.234Z,93680.00
2023-03-06T12:09:38.592Z,93682.06
2023-03-06T12:12:04.906Z,93677.28
2023-03-06T12:14:31.224Z,93678.69
2023-03-06T12:16:57.554Z,93671.81
2023-03-06T12:19:23.876Z,93667.41
2023-03-06T12:21:50.213Z,93666.03
2023-03-06T12:24:16.536Z,93663.81
2023-03-06T12:26:42.861Z,93655.03
2023-03-06T12:29:09.219Z,93651.44
2023-03-06T12:31:35.574Z,93651.44
2023-03-06T12:34:01.910Z,93651.25
2023-03-06T12:36:28.245Z,93639.53
2023-03-06T12:38:54.561Z,93645.44
2023-03-06T12:41:20.900Z,93646.63
2023-03-06T12:43:47.228Z,93645.22
2023-03-06T12:46:13.586Z,93639.41
2023-03-06T12:48:39.923Z,93636.78
2023-03-06T12:51:06.278Z,93638.22
2023-03-06T12:53:32.611Z,93628.38
2023-03-06T12:55:59.030Z,93624.94
2023-03-06T12:58:25.342Z,93620.13
2023-03-06T13:00:58.537Z,93618.72
2023-03-06T13:03:26.202Z,93626.41
2023-03-06T13:05:52.541Z,93625.81
2023-03-06T13:08:18.865Z,93610.63
2023-03-06T13:10:45.193Z,93617.09
2023-03-06T13:13:11.508Z,93607.00
2023-03-06T13:15:37.820Z,93616.09
2023-03-06T13:18:04.128Z,93618.91
2023-03-06T13:20:30.452Z,93615.69
2023-03-06T13:22:56.786Z,93615.28
2023-03-06T13:25:23.157Z,93606.97
2023-03-06T13:27:49.514Z,93596.47
2023-03-06T13:30:15.850Z,93605.97
2023-03-06T13:32:42.179Z,93605.75
2023-03-06T13:35:08.525Z,93597.25
2023-03-06T13:37:34.856Z,93601.13
2023-03-06T13:40:01.190Z,93609.00
2023-03-06T13:42:27.524Z,93603.53
2023-03-06T13:44:53.847Z,93602.53
2023-03-06T13:47:20.158Z,93602.53
2023-03-06T13:49:46.546Z,93605.38
2023-03-06T13:52:12.873Z,93604.75
2023-03-06T13:54:39.190Z,93597.50
2023-03-06T13:57:05.517Z,93602.16
2023-03-06T13:59:31.860Z,93610.22
2023-03-06T14:01:58.202Z,93604.16
2023-03-06T14:04:24.514Z,93598.69
2023-03-06T14:06:50.858Z,93593.22
2023-03-06T14:09:17.179Z,93592.44
2023-03-06T14:11:43.498Z,93592.00
2023-03-06T14:14:09.830Z,93594.44
2023-03-06T14:16:49.073Z,93596.63
2023-03-06T14:19:16.415Z,93598.66
2023-03-06T14:21:42.730Z,93595.22
2023-03-06T14:24:09.039Z,93588.78
2023-03-06T14:26:35.364Z,93588.56
2023-03-06T14:29:01.692Z,93591.00
2023-03-06T14:31:28.012Z,93587.13
2023-03-06T14:33:54.330Z,93587.75
2023-03-06T14:36:20.644Z,93578.69
2023-03-06T14:38:47.017Z,93583.34
2023-03-06T14:41:14.307Z,93583.13
2023-03-06T14:43:40.667Z,93579.47
2023-03-06T14:46:07.038Z,93579.88
2023-03-06T14:48:33.447Z,93585.75
2023-03-06T14:50:59.763Z,93581.09
2023-03-06T14:53:26.117Z,93571.41
2023-03-06T14:55:52.459Z,93573.41
2023-03-06T14:58:18.780Z,93574.44
2023-03-06T15:00:45.125Z,93581.13
2023-03-06T15:03:11.555Z,93580.28
2023-03-06T15:05:37.889Z,93580.09
2023-03-06T15:08:04.222Z,93583.13
2023-03-06T15:10:30.584Z,93575.66
2023-03-06T15:12:56.915Z,93576.25
2023-03-06T15:15:23.267Z,93579.28
2023-03-06T15:17:49.607Z,93586.34
2023-03-06T15:20:15.929Z,93578.47
2023-03-06T15:22:42.246Z,93579.91
2023-03-06T15:25:08.582Z,93573.63
2023-03-06T15:27:34.913Z,93583.53
2023-03-06T15:30:01.257Z,93578.69
2023-03-06T15:32:27.633Z,93586.75
2023-03-06T15:34:53.998Z,93571.59
2023-03-06T15:37:20.377Z,93576.25
2023-03-06T15:39:46.723Z,93580.88
2023-03-06T15:42:13.050Z,93580.28
2023-03-06T15:44:39.379Z,93586.13
2023-03-06T15:47:09.387Z,93580.50
2023-03-06T15:49:35.951Z,93579.03
2023-03-06T15:52:02.313Z,93578.06
2023-03-06T15:54:28.663Z,93587.72
2023-03-06T15:56:54.987Z,93585.50
2023-03-06T15:59:21.302Z,93591.53
2023-03-06T16:01:47.668Z,93587.03
2023-03-06T16:04:14.058Z,93592.31
2023-03-06T16:06:40.427Z,93593.94
2023-03-06T16:09:06.775Z,93600.00
2023-03-06T16:11:43.396Z,93608.38
2023-03-06T16:14:10.188Z,93605.47
2023-03-06T16:16:36.527Z,93612.53
2023-03-06T16:19:02.893Z,93612.38
2023-03-06T16:21:29.210Z,93622.19
2023-03-06T16:23:55.577Z,93615.50
2023-03-06T16:26:22.002Z,93631.13
2023-03-06T16:28:48.345Z,93628.06
2023-03-06T16:31:14.746Z,93623.78
2023-03-06T16:33:41.107Z,93627.53
2023-03-06T16:36:07.434Z,93624.47
2023-03-06T16:38:33.783Z,93629.63
2023-03-06T16:41:00.210Z,93629.53
2023-03-06T16:43:26.523Z,93631.00
2023-03-06T16:45:52.861Z,93630.41
2023-03-06T16:48:19.214Z,93631.81
2023-03-06T16:50:45.569Z,93619.91
2023-03-06T16:53:11.901Z,93620.66
2023-03-06T16:55:38.244Z,93628.88
2023-03-06T16:58:04.584Z,93635.22
2023-03-06T17:00:31.372Z,93638.75
2023-03-06T17:02:57.717Z,93642.03
2023-03-06T17:05:24.072Z,93639.16
2023-03-06T17:07:50.426Z,93639.97
2023-03-06T17:10:16.775Z,93646.88
2023-03-06T17:12:43.107Z,93645.53
2023-03-06T17:15:09.442Z,93650.16
2023-03-06T17:17:35.781Z,93651.31
2023-03-06T17:20:02.246Z,93656.66
2023-03-06T17:22:28.604Z,93656.56
2023-03-06T17:24:54.921Z,93656.38
2023-03-06T17:27:21.235Z,93672.44
2023-03-06T17:29:47.574Z,93672.34
2023-03-06T17:32:13.931Z,93673.13
2023-03-06T17:34:40.486Z,93676.09
2023-03-06T17:37:06.825Z,93682.66
2023-03-06T17:39:33.182Z,93691.69
2023-03-06T17:41:59.501Z,93691.84
2023-03-06T17:44:25.834Z,93693.28
2023-03-06T17:46:52.193Z,93700.75
2023-03-06T17:49:18.534Z,93702.13
2023-03-06T17:51:44.870Z,93702.00
2023-03-06T17:54:11.220Z,93708.31
2023-03-06T17:56:37.540Z,93709.75
2023-03-06T17:59:03.897Z,93709.88
2023-03-06T18:01:30.293Z,93711.03
2023-03-06T18:03:56.633Z,93716.09
2023-03-06T18:18:30.649Z,93748.81
2023-03-06T18:20:56.986Z,93742.63
2023-03-06T18:23:23.317Z,93749.28
2023-03-06T18:25:49.651Z,93742.59
2023-03-06T18:28:15.991Z,93753.69
2023-03-06T18:30:42.345Z,93748.13
2023-03-06T18:33:08.665Z,93747.00
2023-03-06T18:35:35.044Z,93750.59
2023-03-06T18:38:01.385Z,93750.09
2023-03-06T18:40:27.709Z,93755.31
2023-03-06T18:42:54.031Z,93752.53
2023-03-06T18:45:20.384Z,93755.09
2023-03-06T18:47:46.727Z,93757.41
2023-03-06T18:50:13.062Z,93759.50
2023-03-06T18:52:39.410Z,93757.41
2023-03-06T18:55:05.752Z,93765.91
2023-03-06T18:57:32.094Z,93765.94
2023-03-06T18:59:58.429Z,93761.81
2023-03-06T19:02:24.753Z,93764.94
2023-03-06T19:04:51.101Z,93768.84
2023-03-06T19:07:17.491Z,93769.25
2023-03-06T19:09:43.823Z,93770.06
2023-03-06T19:12:10.166Z,93763.41
2023-03-06T19:14:36.486Z,93766.03
2023-03-06T19:17:02.862Z,93769.59
2023-03-06T19:19:29.193Z,93778.06
2023-03-06T19:21:55.536Z,93782.16
2023-03-06T19:24:21.879Z,93781.78
2023-03-06T19:26:48.209Z,93785.38
2023-03-06T19:29:14.551Z,93777.25
2023-03-06T19:31:40.921Z,93780.97
2023-03-06T19:34:07.306Z,93774.47
2023-03-06T19:36:34.033Z,93783.59
2023-03-06T19:39:00.385Z,93786.06
2023-03-06T19:41:26.795Z,93783.63
2023-03-06T19:43:53.147Z,93779.75
2023-03-06T19:46:19.548Z,93783.47
2023-03-06T19:48:45.966Z,93786.78
2023-03-06T19:51:12.295Z,93799.47
2023-03-06T19:53:38.651Z,93792.13
2023-03-06T19:56:04.983Z,93783.66
2023-03-06T19:58:31.307Z,93798.84
2023-03-06T20:00:57.677Z,93786.97
2023-03-06T20:03:24.048Z,93788.75
2023-03-06T20:05:50.365Z,93797.38
2023-03-06T20:08:16.699Z,93787.47
2023-03-06T20:10:43.039Z,93794.94
2023-03-06T20:13:09.374Z,93786.47
2023-03-06T20:15:35.752Z,93785.34
2023-03-06T20:18:02.081Z,93779.00
2023-03-06T20:20:28.395Z,93777.22
2023-03-06T20:22:54.745Z,93774.09
2023-03-06T20:25:21.068Z,93776.88
2023-03-06T20:27:47.412Z,93782.88
2023-03-06T20:30:13.742Z,93784.03
2023-03-06T20:32:40.153Z,93780.63
2023-03-06T20:35:06.494Z,93781.78
2023-03-06T20:37:32.809Z,93783.22
2023-03-06T20:39:59.135Z,93779.66
2023-03-06T20:42:25.447Z,93780.47
2023-03-06T20:44:51.777Z,93776.88
2023-03-06T20:47:18.099Z,93769.38
2023-03-06T20:49:44.416Z,93779.66
2023-03-06T20:52:10.754Z,93778.84
2023-03-06T20:54:37.542Z,93785.19
2023-03-06T20:57:03.875Z,93789.41
2023-03-06T20:59:30.218Z,93789.88
2023-03-06T21:01:56.597Z,93787.91
2023-03-06T21:04:22.956Z,93787.09
2023-03-06T21:06:49.279Z,93788.59
2023-03-06T21:09:15.618Z,93792.66
2023-03-06T21:11:41.943Z,93788.44
2023-03-06T21:14:08.289Z,93777.50
2023-03-06T21:16:34.655Z,93787.78
2023-03-06T21:19:00.991Z,93780.94
2023-03-06T21:21:27.319Z,93787.81
2023-03-06T21:23:53.668Z,93786.13
2023-03-06T21:26:20.030Z,93784.84
2023-03-06T21:28:46.346Z,93781.25
2023-03-06T21:31:12.707Z,93790.88
2023-03-06T21:33:39.076Z,93777.69
2023-03-06T21:36:05.412Z,93778.31
2023-03-06T21:38:31.750Z,93778.66
2023-03-06T21:40:58.091Z,93780.09
2023-03-06T21:43:24.434Z,93771.47
2023-03-06T21:45:50.763Z,93770.19
2023-03-06T21:48:17.121Z,93769.22
2023-03-06T21:50:43.456Z,93772.28
2023-03-06T21:53:09.783Z,93775.06
2023-03-06T21:55:36.117Z,93768.88
2023-03-06T21:58:02.447Z,93771.00
2023-03-06T22:00:28.753Z,93778.16
2023-03-06T22:02:55.086Z,93771.66
2023-03-06T22:05:21.437Z,93765.47
2023-03-06T22:07:47.773Z,93766.59
2023-03-06T22:10:14.086Z,93767.44
2023-03-06T22:12:40.434Z,93764.84
2023-03-06T22:15:06.787Z,93759.78
2023-03-06T22:17:33.103Z,93756.53
2023-03-06T22:19:59.438Z,93759.78
2023-03-06T22:22:25.772Z,93764.03
2023-03-06T22:24:52.088Z,93759.47
2023-03-06T22:27:18.440Z,93759.47
2023-03-06T22:29:44.781Z,93759.78
2023-03-06T22:32:11.213Z,93759.16
2023-03-06T22:34:37.586Z,93771.19
2023-03-06T22:37:03.895Z,93771.81
2023-03-06T22:39:30.236Z,93765.97
2023-03-06T22:41:56.581Z,93769.56
2023-03-06T22:44:22.898Z,93764.03
2023-03-06T22:46:49.230Z,93759.63
2023-03-06T22:49:15.558Z,93760.44
2023-03-06T22:51:41.879Z,93761.75
2023-03-06T22:54:08.226Z,93752.28
2023-03-06T22:56:34.561Z,93755.72
2023-03-06T22:59:00.886Z,93757.81
2023-03-06T23:01:27.243Z,93752.28
2023-03-06T23:03:53.589Z,93749.84
2023-03-06T23:06:19.932Z,93754.84
2023-03-06T23:08:46.281Z,93746.75
2023-03-06T23:11:12.610Z,93736.63
2023-03-06T23:13:38.947Z,93749.69
2023-03-06T23:16:05.342Z,93739.94
2023-03-06T23:18:31.678Z,93745.13
2023-03-06T23:20:58.069Z,93742.50
2023-03-06T23:23:24.410Z,93753.19
2023-03-06T23:25:50.743Z,93748.97
2023-03-06T23:28:17.105Z,93738.50
2023-03-06T23:30:43.471Z,93744.50
2023-03-06T23:33:09.877Z,93740.78
2023-03-06T23:35:36.282Z,93747.78
2023-03-06T23:38:02.634Z,93743.53
2023-03-06T23:40:29.049Z,93740.28
2023-03-06T23:42:55.398Z,93734.63
2023-03-06T23:45:21.736Z,93726.78
2023-03-06T23:47:48.055Z,93727.25
2023-03-06T23:50:14.456Z,93724.78
2023-03-06T23:52:40.820Z,93729.34
2023-03-06T23:55:07.178Z,93713.53
2023-03-06T23:57:33.524Z,93721.97
2023-03-06T23:59:59.865Z,93723.91
